createdAt,value
2022-11-22T00:00:39.903Z,16.75
2022-11-22T00:03:07.472Z,17.67
2022-11-22T00:05:35.003Z,17.75
2022-11-22T00:08:02.372Z,18.13
2022-11-22T00:10:29.592Z,18.98
2022-11-22T00:12:57.031Z,18.30
2022-11-22T00:15:24.200Z,18.05
2022-11-22T00:17:51.457Z,18.92
2022-11-22T00:20:18.683Z,19.23
2022-11-22T00:22:45.909Z,19.25
2022-11-22T00:25:13.719Z,20.10
2022-11-22T00:27:41.095Z,20.75
2022-11-22T00:30:08.962Z,19.65
2022-11-22T00:32:36.196Z,21.45
2022-11-22T00:35:03.483Z,19.55
2022-11-22T00:37:30.823Z,20.20
2022-11-22T00:39:58.208Z,19.88
2022-11-22T00:42:25.441Z,21.50
2022-11-22T00:44:52.706Z,21.13
2022-11-22T00:47:19.933Z,21.02
2022-11-22T00:49:47.126Z,20.20
2022-11-22T00:52:14.720Z,20.65
2022-11-22T00:54:41.962Z,22.70
2022-11-22T00:57:09.191Z,19.83
2022-11-22T00:59:36.429Z,20.90
2022-11-22T01:02:03.675Z,20.67
2022-11-22T01:04:30.912Z,20.40
2022-11-22T01:06:58.194Z,20.75
2022-11-22T01:09:25.675Z,21.63
2022-11-22T01:11:53.033Z,20.85
2022-11-22T01:14:20.558Z,21.75
2022-11-22T01:16:47.978Z,21.02
2022-11-22T01:19:15.655Z,21.40
2022-11-22T01:21:42.942Z,21.50
2022-11-22T01:24:10.266Z,21.48
2022-11-22T01:26:39.065Z,20.48
2022-11-22T01:29:06.588Z,20.95
2022-11-22T01:31:33.778Z,21.90
2022-11-22T01:34:01.242Z,21.30
2022-11-22T01:36:28.480Z,20.52
2022-11-22T01:38:56.066Z,22.23
2022-11-22T01:41:23.271Z,21.20
2022-11-22T01:43:50.500Z,21.65
2022-11-22T01:46:34.365Z,22.45
2022-11-22T01:49:23.381Z,22.08
2022-11-22T01:51:52.614Z,22.63
2022-11-22T01:54:23.406Z,21.30
2022-11-22T01:56:57.881Z,22.50
2022-11-22T01:59:28.358Z,22.02
2022-11-22T02:01:55.965Z,21.95
2022-11-22T02:04:24.183Z,22.23
2022-11-22T02:07:13.455Z,20.48
2022-11-22T02:12:08.218Z,21.35
2022-11-22T02:14:35.631Z,22.40
2022-11-22T02:17:02.933Z,21.75
2022-11-22T02:19:40.557Z,22.02
2022-11-22T02:22:22.989Z,22.75
2022-11-22T02:25:07.472Z,23.23
2022-11-22T02:27:34.884Z,25.95
2022-11-22T02:30:02.127Z,23.08
2022-11-22T02:32:29.395Z,25.50
2022-11-22T02:34:56.820Z,22.85
2022-11-22T02:37:27.573Z,23.40
2022-11-22T02:40:05.171Z,21.98
2022-11-22T02:42:33.322Z,22.55
2022-11-22T02:45:00.491Z,22.90
2022-11-22T02:47:27.744Z,23.58
2022-11-22T02:49:55.015Z,23.70
2022-11-22T02:52:22.199Z,22.25
2022-11-22T02:54:49.408Z,22.65
2022-11-22T02:57:16.662Z,22.27
2022-11-22T02:59:43.863Z,22.42
2022-11-22T03:02:11.095Z,21.88
2022-11-22T03:04:38.268Z,23.08
2022-11-22T03:07:05.511Z,21.33
2022-11-22T03:09:33.114Z,24.27
2022-11-22T03:12:00.690Z,24.08
2022-11-22T03:14:27.911Z,25.15
2022-11-22T03:16:55.240Z,23.40
2022-11-22T03:19:22.596Z,23.55
2022-11-22T03:21:49.818Z,24.30
2022-11-22T03:24:17.127Z,24.45
2022-11-22T03:26:49.094Z,23.30
2022-11-22T03:29:17.403Z,23.98
2022-11-22T03:31:44.587Z,23.55
2022-11-22T03:34:15.072Z,23.23
2022-11-22T03:36:42.714Z,23.25
2022-11-22T03:39:09.928Z,24.77
2022-11-22T03:41:37.256Z,24.27
2022-11-22T03:44:04.864Z,24.42
2022-11-22T03:46:32.115Z,25.00
2022-11-22T03:48:59.410Z,24.83
2022-11-22T03:51:27.444Z,25.45
2022-11-22T03:53:54.685Z,24.75
2022-11-22T03:56:22.879Z,23.58
2022-11-22T03:58:50.257Z,24.42
2022-11-22T04:01:17.519Z,25.38
2022-11-22T04:03:44.759Z,25.92
2022-11-22T04:06:12.082Z,24.63
2022-11-22T04:08:39.323Z,25.00
2022-11-22T04:11:06.580Z,25.38
2022-11-22T04:13:52.309Z,24.90
2022-11-22T04:16:19.521Z,23.70
2022-11-22T04:18:46.794Z,24.75
2022-11-22T04:21:32.347Z,25.05
2022-11-22T04:24:18.301Z,25.88
2022-11-22T04:26:45.478Z,24.33
2022-11-22T04:29:12.692Z,26.02
2022-11-22T04:31:58.279Z,25.00
2022-11-22T04:34:25.499Z,25.30
2022-11-22T04:36:52.899Z,26.17
2022-11-22T04:39:20.210Z,24.13
2022-11-22T04:41:47.380Z,25.67
2022-11-22T04:44:33.357Z,26.38
2022-11-22T04:47:00.808Z,27.75
2022-11-22T04:49:28.402Z,27.08
2022-11-22T04:52:14.379Z,26.08
2022-11-22T04:54:41.573Z,25.83
2022-11-22T04:57:08.762Z,25.65
2022-11-22T04:59:36.856Z,26.20
2022-11-22T05:02:04.125Z,26.08
2022-11-22T05:04:31.517Z,28.48
2022-11-22T05:06:58.751Z,24.98
2022-11-22T05:09:26.007Z,28.20
2022-11-22T05:11:53.959Z,28.65
2022-11-22T05:14:21.153Z,27.88
2022-11-22T05:16:48.383Z,26.98
2022-11-22T05:19:15.562Z,26.55
2022-11-22T05:21:42.752Z,29.38
2022-11-22T05:24:10.214Z,29.00
2022-11-22T05:26:37.718Z,28.83
2022-11-22T05:29:09.701Z,28.05
2022-11-22T05:31:38.312Z,28.33
2022-11-22T05:34:05.870Z,28.25
2022-11-22T05:36:34.200Z,29.42
2022-11-22T05:39:01.983Z,30.45
2022-11-22T05:41:29.368Z,30.20
2022-11-22T05:43:57.163Z,31.52
2022-11-22T05:46:26.647Z,31.67
2022-11-22T05:48:55.003Z,29.33
2022-11-22T05:51:25.263Z,30.58
2022-11-22T05:53:55.181Z,30.92
2022-11-22T05:56:23.809Z,31.48
2022-11-22T05:58:52.043Z,31.40
2022-11-22T06:01:23.777Z,30.88
2022-11-22T06:03:51.545Z,31.77
2022-11-22T06:06:19.008Z,31.40
2022-11-22T06:08:48.077Z,33.22
2022-11-22T06:11:24.003Z,33.42
2022-11-22T06:13:53.783Z,33.17
2022-11-22T06:16:21.428Z,32.30
2022-11-22T06:18:49.091Z,33.30
2022-11-22T06:21:19.252Z,31.60
2022-11-22T06:23:46.863Z,32.70
2022-11-22T06:26:16.445Z,32.75
2022-11-22T06:28:44.317Z,32.92
2022-11-22T06:31:20.061Z,33.67
2022-11-22T06:33:47.567Z,33.13
2022-11-22T06:36:20.282Z,34.33
2022-11-22T06:38:48.070Z,34.55
2022-11-22T06:41:20.331Z,34.00
2022-11-22T06:43:49.643Z,33.08
2022-11-22T06:46:22.031Z,33.63
2022-11-22T06:48:49.519Z,33.22
2022-11-22T06:51:22.336Z,32.38
2022-11-22T06:53:50.045Z,34.40
2022-11-22T06:56:19.493Z,33.97
2022-11-22T07:01:34.321Z,32.28
2022-11-22T07:04:02.285Z,34.72
2022-11-22T07:06:31.775Z,33.97
2022-11-22T07:09:00.061Z,35.05
2022-11-22T07:11:29.347Z,33.10
2022-11-22T07:14:01.928Z,32.60
2022-11-22T07:16:34.175Z,33.47
2022-11-22T07:19:01.385Z,34.47
2022-11-22T07:21:28.670Z,34.55
2022-11-22T07:23:56.425Z,32.90
2022-11-22T07:26:25.054Z,33.72
2022-11-22T07:28:52.568Z,35.22
2022-11-22T07:31:19.821Z,36.90
2022-11-22T07:33:47.437Z,33.38
2022-11-22T07:36:17.381Z,34.63
2022-11-22T07:38:45.683Z,33.53
2022-11-22T07:41:12.967Z,37.60
2022-11-22T07:43:40.164Z,34.22
2022-11-22T07:46:18.851Z,32.53
2022-11-22T07:48:46.050Z,32.45
2022-11-22T07:51:13.297Z,35.67
2022-11-22T07:53:40.470Z,32.47
2022-11-22T07:56:08.072Z,32.65
2022-11-22T07:58:35.675Z,35.42
2022-11-22T08:01:14.536Z,34.40
2022-11-22T08:03:42.561Z,32.80
2022-11-22T08:06:11.373Z,31.80
2022-11-22T08:08:38.865Z,31.20
2022-11-22T08:11:06.779Z,32.65
2022-11-22T08:13:34.542Z,33.50
2022-11-22T08:16:05.480Z,33.38
2022-11-22T08:18:33.861Z,36.03
2022-11-22T08:21:09.179Z,32.53
2022-11-22T08:23:37.112Z,31.73
2022-11-22T08:26:05.346Z,32.05
2022-11-22T08:28:32.693Z,32.67
2022-11-22T08:31:08.965Z,33.33
2022-11-22T08:33:36.530Z,31.25
2022-11-22T08:36:03.967Z,33.60
2022-11-22T08:38:31.253Z,34.50
2022-11-22T08:40:58.464Z,30.42
2022-11-22T08:43:25.803Z,33.45
2022-11-22T08:45:57.830Z,32.90
2022-11-22T08:48:26.010Z,31.95
2022-11-22T08:50:54.887Z,32.13
2022-11-22T08:53:22.613Z,31.02
2022-11-22T08:55:50.099Z,31.80
2022-11-22T08:58:17.369Z,31.40
2022-11-22T09:00:44.863Z,30.15
2022-11-22T09:03:12.188Z,29.85
2022-11-22T09:08:27.930Z,28.65
2022-11-22T09:11:04.389Z,29.55
2022-11-22T09:13:31.845Z,29.60
2022-11-22T09:16:06.395Z,29.27
2022-11-22T09:18:33.662Z,28.17
2022-11-22T09:21:01.846Z,29.60
2022-11-22T09:23:29.207Z,28.13
2022-11-22T09:26:11.231Z,26.60
2022-11-22T09:28:38.643Z,27.00
2022-11-22T09:31:11.592Z,26.85
2022-11-22T09:33:40.534Z,27.50
2022-11-22T09:36:09.781Z,27.27
2022-11-22T09:38:37.985Z,28.42
2022-11-22T09:41:20.098Z,28.02
2022-11-22T09:44:07.509Z,26.05
2022-11-22T09:46:42.719Z,27.00
2022-11-22T09:49:29.390Z,27.85
2022-11-22T09:52:32.346Z,27.58
2022-11-22T09:55:25.892Z,27.25
2022-11-22T09:58:06.388Z,27.27
2022-11-22T10:00:33.805Z,26.65
2022-11-22T10:03:13.010Z,27.75
2022-11-22T10:05:51.167Z,26.83
2022-11-22T10:08:41.475Z,28.55
2022-11-22T10:11:36.763Z,28.38
2022-11-22T10:14:12.539Z,27.42
2022-11-22T10:16:48.809Z,28.92
2022-11-22T10:19:24.282Z,26.20
2022-11-22T10:21:51.506Z,27.13
2022-11-22T10:24:19.730Z,28.30
2022-11-22T10:26:47.778Z,28.73
2022-11-22T10:29:39.401Z,28.40
2022-11-22T10:32:34.723Z,27.85
2022-11-22T10:35:31.734Z,28.88
2022-11-22T10:38:11.886Z,27.33
2022-11-22T10:41:19.349Z,29.30
2022-11-22T10:44:12.196Z,28.30
2022-11-22T10:46:56.351Z,28.55
2022-11-22T10:49:44.156Z,29.38
2022-11-22T10:52:23.173Z,28.20
2022-11-22T10:55:22.316Z,30.15
2022-11-22T10:58:15.205Z,28.73
2022-11-22T11:00:45.668Z,29.55
2022-11-22T11:03:25.488Z,28.25
2022-11-22T11:06:24.387Z,29.45
2022-11-22T11:11:47.789Z,28.23
2022-11-22T11:14:37.294Z,29.57
2022-11-22T11:17:06.157Z,29.83
2022-11-22T11:19:38.380Z,28.10
2022-11-22T11:22:08.505Z,28.92
2022-11-22T11:24:38.857Z,27.27
2022-11-22T11:27:06.198Z,29.42
2022-11-22T11:29:40.013Z,27.98
2022-11-22T11:32:12.753Z,28.38
2022-11-22T11:34:50.362Z,29.15
2022-11-22T11:37:23.475Z,29.50
2022-11-22T11:39:50.672Z,30.67
2022-11-22T11:42:32.273Z,30.42
2022-11-22T11:45:19.395Z,29.90
2022-11-22T11:47:46.608Z,27.33
2022-11-22T11:50:24.370Z,28.02
2022-11-22T11:52:55.485Z,30.10
2022-11-22T11:55:22.926Z,29.77
2022-11-22T11:57:50.489Z,29.15
2022-11-22T12:00:26.409Z,27.38
2022-11-22T12:03:01.580Z,28.20
2022-11-22T12:05:33.278Z,28.05
2022-11-22T12:08:01.861Z,27.67
2022-11-22T12:10:29.802Z,27.38
2022-11-22T12:13:30.261Z,27.75
2022-11-22T12:16:25.125Z,27.73
2022-11-22T12:19:16.418Z,27.63
2022-11-22T12:22:05.777Z,30.00
2022-11-22T12:25:03.120Z,28.50
2022-11-22T12:27:27.446Z,28.08
2022-11-22T12:29:54.774Z,29.50
2022-11-22T12:32:29.583Z,28.52
2022-11-22T12:35:03.827Z,27.40
2022-11-22T12:37:37.116Z,29.15
2022-11-22T12:40:13.037Z,28.40
2022-11-22T12:42:49.655Z,27.30
2022-11-22T12:45:36.710Z,29.50
2022-11-22T12:48:14.044Z,28.02
2022-11-22T12:50:47.143Z,28.65
2022-11-22T12:53:17.863Z,28.15
2022-11-22T12:55:56.820Z,29.70
2022-11-22T12:58:51.808Z,29.10
2022-11-22T13:01:26.350Z,26.70
2022-11-22T13:04:11.954Z,26.05
2022-11-22T13:06:53.157Z,29.13
2022-11-22T13:09:34.170Z,25.38
2022-11-22T13:12:06.580Z,27.23
2022-11-22T13:14:34.547Z,28.42
2022-11-22T13:17:07.478Z,28.45
2022-11-22T13:19:44.354Z,26.55
2022-11-22T13:22:34.321Z,26.58
2022-11-22T13:25:17.617Z,29.27
2022-11-22T13:27:48.740Z,29.02
2022-11-22T13:30:22.260Z,27.75
2022-11-22T13:32:54.579Z,27.65
2022-11-22T13:35:31.621Z,28.90
2022-11-22T13:38:14.340Z,29.00
2022-11-22T13:40:48.052Z,27.48
2022-11-22T13:43:21.539Z,30.67
2022-11-22T13:46:04.297Z,29.95
2022-11-22T13:48:40.660Z,27.90
2022-11-22T13:51:11.926Z,29.10
2022-11-22T13:53:42.581Z,28.48
2022-11-22T13:56:38.845Z,27.90
2022-11-22T13:59:17.000Z,27.73
2022-11-22T14:01:44.186Z,27.73
2022-11-22T14:04:18.538Z,27.40
2022-11-22T14:06:59.622Z,27.40
2022-11-22T14:09:53.033Z,26.83
2022-11-22T14:12:58.012Z,27.80
2022-11-22T14:15:40.849Z,27.80
2022-11-22T14:18:45.666Z,27.95
2022-11-22T14:21:40.350Z,28.73
2022-11-22T14:24:17.112Z,26.80
2022-11-22T14:27:00.013Z,29.23
2022-11-22T14:30:02.259Z,28.10
2022-11-22T14:32:46.722Z,28.50
2022-11-22T14:35:26.319Z,28.13
2022-11-22T14:38:07.763Z,28.65
2022-11-22T14:40:40.274Z,27.83
2022-11-22T14:43:29.979Z,28.70
2022-11-22T14:46:30.448Z,29.02
2022-11-22T14:49:37.338Z,27.70
2022-11-22T14:52:09.906Z,27.48
2022-11-22T14:54:48.911Z,28.48
2022-11-22T14:57:21.565Z,27.52
2022-11-22T15:00:15.911Z,27.10
2022-11-22T15:03:21.230Z,28.48
2022-11-22T15:09:15.369Z,27.83
2022-11-22T15:09:21.751Z,27.98
2022-11-22T15:12:21.422Z,26.35
2022-11-22T15:57:57.577Z,27.92
2022-11-22T16:00:25.512Z,27.67
2022-11-22T16:03:02.891Z,28.67
2022-11-22T16:06:06.352Z,28.95
2022-11-22T16:08:24.346Z,27.15
2022-11-22T16:10:53.840Z,28.45
2022-11-22T16:13:21.091Z,27.67
2022-11-22T16:16:04.689Z,28.48
2022-11-22T16:18:32.095Z,28.67
2022-11-22T16:21:04.801Z,29.48
2022-11-22T16:23:37.348Z,28.08
2022-11-22T16:26:25.291Z,28.38
2022-11-22T16:28:53.856Z,28.50
2022-11-22T16:31:31.706Z,28.30
2022-11-22T16:33:58.974Z,27.70
2022-11-22T16:36:29.460Z,28.15
2022-11-22T16:38:56.767Z,27.42
2022-11-22T16:41:26.806Z,27.02
2022-11-22T16:43:55.590Z,27.67
2022-11-22T16:46:23.288Z,27.92
2022-11-22T16:48:50.733Z,29.38
2022-11-22T16:51:24.323Z,29.38
2022-11-22T16:53:53.418Z,32.40
2022-11-22T16:56:29.246Z,31.02
2022-11-22T16:58:57.906Z,31.20
2022-11-22T17:01:27.530Z,31.45
2022-11-22T17:03:56.606Z,29.75
2022-11-22T17:06:25.831Z,28.45
2022-11-22T17:08:55.306Z,31.08
2022-11-22T17:11:25.257Z,30.50
2022-11-22T17:13:52.992Z,31.67
2022-11-22T17:16:20.193Z,32.22
2022-11-22T17:18:48.114Z,32.05
2022-11-22T17:21:27.878Z,30.15
2022-11-22T17:23:59.762Z,31.88
2022-11-22T17:26:27.577Z,32.65
2022-11-22T17:28:55.030Z,32.55
2022-11-22T17:31:23.308Z,32.45
2022-11-22T17:33:51.950Z,32.33
2022-11-22T17:36:26.590Z,31.75
2022-11-22T17:38:53.854Z,31.60
2022-11-22T17:41:21.057Z,32.55
2022-11-22T17:43:48.304Z,31.65
2022-11-22T17:46:18.112Z,32.47
2022-11-22T17:48:52.353Z,34.58
2022-11-22T17:51:20.209Z,31.00
2022-11-22T17:53:47.851Z,32.38
2022-11-22T17:56:15.247Z,32.63
2022-11-22T17:58:42.944Z,33.13
2022-11-22T18:01:12.754Z,33.13
2022-11-22T18:03:40.562Z,31.95
2022-11-22T18:06:09.170Z,31.85
2022-11-22T18:08:36.739Z,32.00
2022-11-22T18:11:04.729Z,34.55
2022-11-22T18:13:34.916Z,33.30
2022-11-22T18:16:04.012Z,32.75
2022-11-22T18:21:19.790Z,32.88
2022-11-22T18:23:47.082Z,33.65
2022-11-22T18:29:35.485Z,33.08
2022-11-22T18:31:53.610Z,33.75
2022-11-22T18:34:22.299Z,36.15
2022-11-22T18:36:55.229Z,33.60
2022-11-22T18:39:23.529Z,34.13
2022-11-22T18:41:50.739Z,34.65
2022-11-22T18:44:20.822Z,33.80
2022-11-22T18:46:48.448Z,33.10
2022-11-22T18:49:15.658Z,31.90
2022-11-22T18:51:43.175Z,35.47
2022-11-22T18:54:10.866Z,35.78
2022-11-22T18:56:40.266Z,34.70
2022-11-22T18:59:10.495Z,32.70
2022-11-22T19:01:38.067Z,34.65
2022-11-22T19:04:05.474Z,35.42
2022-11-22T19:06:32.977Z,35.28
2022-11-22T19:09:00.791Z,36.05
2022-11-22T19:11:30.326Z,33.10
2022-11-22T19:13:57.800Z,35.20
2022-11-22T19:16:27.962Z,36.00
2022-11-22T19:18:55.194Z,33.95
2022-11-22T19:21:24.109Z,35.67
2022-11-22T19:23:51.594Z,36.63
2022-11-22T19:26:21.501Z,36.22
2022-11-22T19:28:55.043Z,35.22
2022-11-22T19:31:27.729Z,33.90
2022-11-22T19:33:55.389Z,35.08
2022-11-22T19:36:31.856Z,34.83
2022-11-22T19:39:00.421Z,36.55
2022-11-22T19:41:27.741Z,36.30
2022-11-22T19:43:56.482Z,35.83
2022-11-22T19:46:24.342Z,36.83
2022-11-22T19:48:56.369Z,36.40
2022-11-22T19:51:24.512Z,37.08
2022-11-22T19:54:02.557Z,35.67
2022-11-22T19:56:31.636Z,37.10
2022-11-22T19:58:59.880Z,35.28
2022-11-22T20:01:29.750Z,34.70
2022-11-22T20:03:59.168Z,35.03
2022-11-22T20:06:27.442Z,36.22
2022-11-22T20:09:00.918Z,36.72
2022-11-22T20:11:28.312Z,35.42
2022-11-22T20:13:55.859Z,36.90
2022-11-22T20:16:25.449Z,36.60
2022-11-22T20:18:54.021Z,36.90
2022-11-22T20:21:22.549Z,38.37
2022-11-22T20:23:50.943Z,35.33
2022-11-22T20:26:19.475Z,36.63
2022-11-22T20:28:47.521Z,37.93
2022-11-22T20:31:19.460Z,36.63
2022-11-22T20:33:48.701Z,37.22
2022-11-22T20:36:23.911Z,37.80
2022-11-22T20:38:51.993Z,38.17
2022-11-22T20:41:20.859Z,37.60
2022-11-22T20:43:49.716Z,36.38
2022-11-22T20:46:24.637Z,39.45
2022-11-22T20:48:53.208Z,38.35
2022-11-22T20:51:28.766Z,36.03
2022-11-22T20:53:56.973Z,35.75
2022-11-22T20:56:24.639Z,37.15
2022-11-22T20:58:53.244Z,35.92
2022-11-22T21:01:25.998Z,36.90
2022-11-22T21:03:54.483Z,39.00
2022-11-22T21:06:23.634Z,37.58
2022-11-22T21:08:53.532Z,38.00
2022-11-22T21:11:31.155Z,36.90
2022-11-22T21:13:59.105Z,37.22
2022-11-22T21:16:28.540Z,36.33
2022-11-22T21:19:05.043Z,37.85
2022-11-22T21:21:34.824Z,39.20
2022-11-22T21:24:03.080Z,37.75
2022-11-22T21:26:30.887Z,38.40
2022-11-22T21:28:59.340Z,37.63
2022-11-22T21:31:26.934Z,40.30
2022-11-22T21:33:54.296Z,38.22
2022-11-22T21:36:21.985Z,37.30
2022-11-22T21:38:49.501Z,38.35
2022-11-22T21:44:06.833Z,38.35
2022-11-22T21:46:34.020Z,39.50
2022-11-22T21:49:01.233Z,40.05
2022-11-22T21:51:28.598Z,38.20
2022-11-22T21:54:02.288Z,37.38
2022-11-22T21:56:29.821Z,39.80
2022-11-22T21:58:57.028Z,37.92
2022-11-22T22:01:25.044Z,39.80
2022-11-22T22:03:52.419Z,38.65
2022-11-22T22:06:20.237Z,37.63
2022-11-22T22:08:47.537Z,37.70
2022-11-22T22:11:14.772Z,39.30
2022-11-22T22:13:42.086Z,39.97
2022-11-22T22:16:15.570Z,39.92
2022-11-22T22:18:43.568Z,37.58
2022-11-22T22:21:11.981Z,38.70
2022-11-22T22:23:40.673Z,37.58
2022-11-22T22:26:13.036Z,38.75
2022-11-22T22:28:40.829Z,39.50
2022-11-22T22:31:11.741Z,38.97
2022-11-22T22:33:41.128Z,41.33
2022-11-22T22:38:36.066Z,38.20
2022-11-22T22:41:04.683Z,37.28
2022-11-22T22:43:34.086Z,40.13
2022-11-22T22:46:27.963Z,37.72
2022-11-22T22:48:56.108Z,39.47
2022-11-22T22:51:31.917Z,38.70
2022-11-22T22:54:00.642Z,40.97
2022-11-22T22:56:30.019Z,40.17
2022-11-22T22:58:58.191Z,40.85
2022-11-22T23:01:28.144Z,40.40
2022-11-22T23:03:57.652Z,40.05
2022-11-22T23:06:26.808Z,40.20
2022-11-22T23:08:54.702Z,40.70
2022-11-22T23:11:45.454Z,41.88
2022-11-22T23:14:14.171Z,41.13
2022-11-22T23:16:41.662Z,41.67
2022-11-22T23:19:08.938Z,41.42
2022-11-22T23:21:36.774Z,40.97
2022-11-22T23:24:04.644Z,41.17
2022-11-22T23:26:32.242Z,40.78
2022-11-22T23:28:59.908Z,41.00
2022-11-22T23:31:27.466Z,43.85
2022-11-22T23:33:54.742Z,40.72
2022-11-22T23:36:22.640Z,39.22
2022-11-22T23:38:49.828Z,42.13
2022-11-22T23:41:19.890Z,41.85
2022-11-22T23:43:48.009Z,38.83
2022-11-22T23:46:16.341Z,41.10
2022-11-22T23:48:45.014Z,40.05
2022-11-22T23:51:12.690Z,38.83
2022-11-22T23:53:39.898Z,40.80
2022-11-22T23:56:09.082Z,41.97
2022-11-22T23:58:36.655Z,40.85
